createdAt,value
2023-04-27T00:02:14.771Z,101569.91
2023-04-27T00:04:43.358Z,101571.16
2023-04-27T00:07:11.831Z,101561.53
2023-04-27T00:09:39.735Z,101559.81
2023-04-27T00:12:08.007Z,101565.41
2023-04-27T00:14:37.255Z,101558.84
2023-04-27T00:17:05.181Z,101561.69
2023-04-27T00:19:33.728Z,101566.94
2023-04-27T00:22:01.622Z,101558.56
2023-04-27T00:24:29.662Z,101566.47
2023-04-27T00:26:57.822Z,101559.13
2023-04-27T00:29:25.836Z,101565.13
2023-04-27T00:31:55.111Z,101562.66
2023-04-27T00:34:23.714Z,101565.31
2023-04-27T00:36:51.558Z,101556.94
2023-04-27T00:39:21.364Z,101565.50
2023-04-27T00:41:49.282Z,101566.94
2023-04-27T00:44:23.884Z,101568.84
2023-04-27T00:46:52.165Z,101578.28
2023-04-27T00:49:22.445Z,101579.44
2023-04-27T00:51:50.550Z,101574.09
2023-04-27T00:54:20.984Z,101576.75
2023-04-27T00:56:50.158Z,101576.94
2023-04-27T00:59:18.447Z,101581.91
2023-04-27T01:01:47.717Z,101577.97
2023-04-27T01:04:17.042Z,101590.50
2023-04-27T01:06:46.752Z,101585.03
2023-04-27T01:09:16.502Z,101586.03
2023-04-27T01:11:44.480Z,101584.66
2023-04-27T01:14:12.501Z,101583.78
2023-04-27T01:16:40.595Z,101576.09
2023-04-27T01:19:10.834Z,101578.88
2023-04-27T01:21:38.897Z,101582.09
2023-04-27T01:24:09.668Z,101583.44
2023-04-27T01:26:39.001Z,101589.13
2023-04-27T01:29:06.908Z,101593.91
2023-04-27T01:31:35.505Z,101594.25
2023-04-27T01:34:03.502Z,101591.06
2023-04-27T01:36:31.845Z,101599.25
2023-04-27T01:38:59.802Z,101595.63
2023-04-27T01:41:29.131Z,101600.28
2023-04-27T01:43:57.459Z,101601.66
2023-04-27T01:46:25.426Z,101604.94
2023-04-27T01:48:53.421Z,101603.69
2023-04-27T01:51:21.350Z,101607.34
2023-04-27T01:53:49.493Z,101607.41
2023-04-27T01:56:17.679Z,101612.47
2023-04-27T01:58:47.234Z,101618.00
2023-04-27T02:01:15.121Z,101609.72
2023-04-27T02:03:43.259Z,101612.88
2023-04-27T02:06:13.030Z,101613.97
2023-04-27T02:08:41.006Z,101626.09
2023-04-27T02:11:10.108Z,101620.28
2023-04-27T02:13:38.029Z,101625.25
2023-04-27T02:16:08.416Z,101627.03
2023-04-27T02:18:36.360Z,101627.00
2023-04-27T02:21:09.718Z,101631.09
2023-04-27T02:23:38.010Z,101626.38
2023-04-27T02:26:06.053Z,101634.56
2023-04-27T02:28:34.009Z,101635.31
2023-04-27T02:31:03.133Z,101640.78
2023-04-27T02:33:33.064Z,101638.09
2023-04-27T02:36:00.961Z,101636.34
2023-04-27T02:38:30.679Z,101639.72
2023-04-27T02:40:58.605Z,101635.41
2023-04-27T02:43:28.046Z,101633.53
2023-04-27T02:45:55.957Z,101644.72
2023-04-27T02:48:23.946Z,101636.63
2023-04-27T02:50:53.133Z,101636.63
2023-04-27T02:53:21.019Z,101646.09
2023-04-27T02:55:49.655Z,101645.75
2023-04-27T02:58:17.945Z,101646.78
2023-04-27T03:00:46.794Z,101647.47
2023-04-27T03:03:16.285Z,101648.09
2023-04-27T03:05:44.384Z,101653.75
2023-04-27T03:08:13.647Z,101650.22
2023-04-27T03:10:41.602Z,101649.91
2023-04-27T03:13:11.038Z,101654.38
2023-04-27T03:15:38.948Z,101662.44
2023-04-27T03:18:07.310Z,101662.03
2023-04-27T03:20:35.470Z,101654.81
2023-04-27T03:23:03.319Z,101657.91
2023-04-27T03:25:32.575Z,101650.22
2023-04-27T03:28:00.707Z,101660.56
2023-04-27T03:30:28.500Z,101652.31
2023-04-27T03:32:56.417Z,101662.28
2023-04-27T03:35:24.298Z,101656.94
2023-04-27T03:37:52.127Z,101669.59
2023-04-27T03:40:20.092Z,101661.06
2023-04-27T03:42:49.415Z,101664.88
2023-04-27T03:45:19.204Z,101665.66
2023-04-27T03:47:47.205Z,101664.78
2023-04-27T03:50:16.449Z,101674.31
2023-04-27T03:52:44.394Z,101683.63
2023-04-27T03:55:12.540Z,101673.66
2023-04-27T03:57:43.001Z,101687.06
2023-04-27T04:00:14.596Z,101683.09
2023-04-27T04:02:43.036Z,101688.19
2023-04-27T04:05:11.181Z,101689.28
2023-04-27T04:07:39.257Z,101692.16
2023-04-27T04:10:08.618Z,101702.81
2023-04-27T04:12:38.228Z,101697.91
2023-04-27T04:15:07.808Z,101701.19
2023-04-27T04:17:37.144Z,101709.97
2023-04-27T04:20:08.778Z,101703.78
2023-04-27T04:22:36.666Z,101704.91
2023-04-27T04:25:05.255Z,101711.41
2023-04-27T04:27:33.568Z,101712.38
2023-04-27T04:30:01.867Z,101719.09
2023-04-27T04:32:31.227Z,101710.03
2023-04-27T04:35:01.548Z,101711.00
2023-04-27T04:37:30.436Z,101721.25
2023-04-27T04:39:58.389Z,101705.47
2023-04-27T04:42:27.663Z,101713.94
2023-04-27T04:44:55.782Z,101706.53
2023-04-27T04:47:23.724Z,101714.25
2023-04-27T04:49:53.274Z,101715.97
2023-04-27T04:52:22.690Z,101715.41
2023-04-27T04:54:52.776Z,101725.81
2023-04-27T04:57:22.362Z,101728.13
2023-04-27T04:59:50.316Z,101726.59
2023-04-27T05:02:18.195Z,101724.94
2023-04-27T05:04:46.337Z,101726.25
2023-04-27T05:07:15.242Z,101723.22
2023-04-27T05:09:45.586Z,101736.84
2023-04-27T05:12:13.412Z,101739.22
2023-04-27T05:14:41.353Z,101735.78
2023-04-27T05:17:09.205Z,101730.59
2023-04-27T05:19:37.116Z,101724.59
2023-04-27T05:22:05.031Z,101719.03
2023-04-27T05:24:32.901Z,101728.88
2023-04-27T05:27:02.555Z,101718.84
2023-04-27T05:29:30.711Z,101730.44
2023-04-27T05:31:58.972Z,101723.75
2023-04-27T05:34:26.929Z,101719.38
2023-04-27T05:36:54.804Z,101716.09
2023-04-27T05:39:22.643Z,101725.34
2023-04-27T05:41:50.521Z,101727.34
2023-04-27T05:44:19.748Z,101727.59
2023-04-27T05:46:47.627Z,101734.03
2023-04-27T05:49:16.026Z,101726.19
2023-04-27T05:51:44.001Z,101737.19
2023-04-27T05:54:11.841Z,101733.38
2023-04-27T05:56:39.693Z,101739.44
2023-04-27T05:59:07.625Z,101738.13
2023-04-27T06:01:36.863Z,101736.66
2023-04-27T06:04:04.998Z,101742.16
2023-04-27T06:06:33.989Z,101743.50
2023-04-27T06:09:01.856Z,101746.94
2023-04-27T06:11:29.724Z,101749.91
2023-04-27T06:13:57.602Z,101754.41
2023-04-27T06:16:25.587Z,101751.69
2023-04-27T06:18:54.828Z,101748.44
2023-04-27T06:21:22.695Z,101750.34
2023-04-27T06:23:50.686Z,101746.53
2023-04-27T06:26:18.784Z,101748.25
2023-04-27T06:28:46.780Z,101739.16
2023-04-27T06:31:15.249Z,101752.50
2023-04-27T06:33:43.239Z,101752.78
2023-04-27T06:36:12.536Z,101759.25
2023-04-27T06:38:40.531Z,101750.97
2023-04-27T06:41:08.413Z,101753.66
2023-04-27T06:43:36.333Z,101755.03
2023-04-27T06:46:04.580Z,101767.69
2023-04-27T06:48:32.478Z,101752.94
2023-04-27T06:51:00.693Z,101758.38
2023-04-27T06:53:29.918Z,101753.13
2023-04-27T06:55:57.789Z,101762.19
2023-04-27T06:58:25.637Z,101763.31
2023-04-27T07:00:53.722Z,101763.25
2023-04-27T07:03:22.526Z,101752.81
2023-04-27T07:05:51.593Z,101753.91
2023-04-27T07:08:19.586Z,101754.75
2023-04-27T07:10:48.810Z,101767.00
2023-04-27T07:13:16.775Z,101770.31
2023-04-27T07:15:44.931Z,101761.06
2023-04-27T07:18:13.173Z,101761.81
2023-04-27T07:20:42.369Z,101761.53
2023-04-27T07:23:10.742Z,101754.09
2023-04-27T07:25:40.264Z,101757.19
2023-04-27T07:28:09.898Z,101769.13
2023-04-27T07:30:38.083Z,101766.09
2023-04-27T07:33:07.258Z,101761.66
2023-04-27T07:35:35.600Z,101756.09
2023-04-27T07:38:03.867Z,101759.13
2023-04-27T07:40:32.814Z,101760.88
2023-04-27T07:43:00.954Z,101765.56
2023-04-27T07:45:32.860Z,101766.84
2023-04-27T07:48:02.233Z,101758.69
2023-04-27T07:50:30.942Z,101763.34
2023-04-27T07:52:59.320Z,101756.94
2023-04-27T07:55:28.669Z,101765.09
2023-04-27T07:57:57.097Z,101769.88
2023-04-27T08:00:26.399Z,101769.59
2023-04-27T08:02:56.571Z,101778.38
2023-04-27T08:05:24.941Z,101769.31
2023-04-27T08:07:54.196Z,101774.69
2023-04-27T08:10:22.863Z,101771.91
2023-04-27T08:12:50.986Z,101770.19
2023-04-27T08:15:18.965Z,101773.84
2023-04-27T08:17:47.349Z,101776.41
2023-04-27T08:20:16.837Z,101784.38
2023-04-27T08:22:45.031Z,101781.97
2023-04-27T08:25:12.989Z,101789.84
2023-04-27T08:27:41.225Z,101784.69
2023-04-27T08:30:10.354Z,101786.56
2023-04-27T08:32:38.375Z,101779.47
2023-04-27T08:35:07.171Z,101778.13
2023-04-27T08:37:36.624Z,101784.75
2023-04-27T08:40:08.263Z,101786.25
2023-04-27T08:42:36.404Z,101785.69
2023-04-27T08:45:05.055Z,101789.31
2023-04-27T08:47:42.556Z,101782.16
2023-04-27T08:50:12.719Z,101784.97
2023-04-27T08:52:44.747Z,101777.88
2023-04-27T08:55:15.102Z,101780.81
2023-04-27T08:57:55.251Z,101794.63
2023-04-27T09:00:23.656Z,101783.47
2023-04-27T09:02:51.803Z,101778.53
2023-04-27T09:05:20.578Z,101772.59
2023-04-27T09:08:00.969Z,101774.72
2023-04-27T09:10:30.115Z,101771.53
2023-04-27T09:13:02.052Z,101766.69
2023-04-27T09:15:30.186Z,101761.50
2023-04-27T09:17:58.968Z,101755.88
2023-04-27T09:20:28.718Z,101772.56
2023-04-27T09:22:58.385Z,101792.72
2023-04-27T09:25:30.059Z,101778.19
2023-04-27T09:27:59.019Z,101782.31
2023-04-27T09:30:27.247Z,101783.50
2023-04-27T09:33:26.706Z,101772.63
2023-04-27T09:35:55.305Z,101775.75
2023-04-27T09:38:24.166Z,101772.00
2023-04-27T09:40:54.747Z,101758.03
2023-04-27T09:43:23.360Z,101747.13
2023-04-27T09:45:52.197Z,101750.16
2023-04-27T09:48:21.693Z,101748.31
2023-04-27T09:50:51.424Z,101743.28
2023-04-27T09:53:21.776Z,101737.06
2023-04-27T09:56:00.868Z,101736.34
2023-04-27T09:58:48.498Z,101726.03
2023-04-27T10:01:26.323Z,101725.31
2023-04-27T10:04:06.539Z,101719.63
2023-04-27T10:07:02.150Z,101722.63
2023-04-27T10:09:37.073Z,101712.66
2023-04-27T10:12:20.815Z,101719.47
2023-04-27T10:14:53.534Z,101708.59
2023-04-27T10:17:26.550Z,101716.25
2023-04-27T10:19:58.455Z,101727.50
2023-04-27T10:22:39.230Z,101730.19
2023-04-27T10:25:16.536Z,101725.06
2023-04-27T10:27:52.200Z,101734.38
2023-04-27T10:30:21.411Z,101722.97
2023-04-27T10:32:53.808Z,101727.91
2023-04-27T10:35:23.130Z,101734.84
2023-04-27T10:37:52.196Z,101728.56
2023-04-27T10:40:20.139Z,101737.53
2023-04-27T10:42:50.178Z,101721.13
2023-04-27T10:45:31.545Z,101723.59
2023-04-27T10:48:02.053Z,101713.97
2023-04-27T10:50:31.380Z,101702.09
2023-04-27T10:53:02.528Z,101711.69
2023-04-27T10:55:30.856Z,101703.78
2023-04-27T10:58:00.296Z,101706.69
2023-04-27T11:00:30.053Z,101717.56
2023-04-27T11:02:59.466Z,101726.59
2023-04-27T11:05:33.028Z,101719.63
2023-04-27T11:08:08.376Z,101716.19
2023-04-27T11:10:39.523Z,101732.00
2023-04-27T11:13:11.378Z,101719.97
2023-04-27T11:15:46.957Z,101729.72
2023-04-27T11:18:15.713Z,101735.13
2023-04-27T11:20:44.885Z,101726.78
2023-04-27T11:23:12.928Z,101737.16
2023-04-27T11:25:40.819Z,101728.75
2023-04-27T11:28:19.501Z,101725.13
2023-04-27T11:30:47.742Z,101727.88
2023-04-27T11:33:15.967Z,101722.38
2023-04-27T11:35:43.872Z,101737.53
2023-04-27T11:38:18.103Z,101727.47
2023-04-27T11:40:46.206Z,101732.84
2023-04-27T11:43:14.871Z,101737.72
2023-04-27T11:45:47.295Z,101740.19
2023-04-27T11:48:15.953Z,101746.31
2023-04-27T11:50:47.411Z,101745.78
2023-04-27T11:53:17.413Z,101748.78
2023-04-27T11:55:52.997Z,101750.41
2023-04-27T11:58:22.281Z,101755.91
2023-04-27T12:00:51.555Z,101755.53
2023-04-27T12:03:19.614Z,101763.00
2023-04-27T12:05:51.604Z,101760.09
2023-04-27T12:08:19.693Z,101759.31
2023-04-27T12:10:47.831Z,101749.06
2023-04-27T12:13:16.204Z,101757.63
2023-04-27T12:15:44.659Z,101754.22
2023-04-27T12:18:14.139Z,101770.88
2023-04-27T12:20:42.250Z,101767.78
2023-04-27T12:23:10.385Z,101759.28
2023-04-27T12:25:38.493Z,101770.44
2023-04-27T12:28:06.462Z,101771.56
2023-04-27T12:30:34.388Z,101763.56
2023-04-27T12:33:06.763Z,101768.66
2023-04-27T12:35:36.766Z,101746.75
2023-04-27T12:38:04.911Z,101754.28
2023-04-27T12:40:32.870Z,101750.50
2023-04-27T12:43:01.549Z,101749.38
2023-04-27T12:45:29.546Z,101750.00
2023-04-27T12:48:02.523Z,101743.13
2023-04-27T12:50:32.574Z,101754.09
2023-04-27T12:53:02.030Z,101756.41
2023-04-27T12:55:34.090Z,101761.38
2023-04-27T12:58:02.512Z,101760.06
2023-04-27T13:00:30.587Z,101761.66
2023-04-27T13:02:59.387Z,101757.91
2023-04-27T13:05:28.300Z,101757.09
2023-04-27T13:07:57.798Z,101763.31
2023-04-27T13:10:27.108Z,101760.75
2023-04-27T13:12:55.811Z,101764.50
2023-04-27T13:15:23.693Z,101757.72
2023-04-27T13:17:53.193Z,101762.00
2023-04-27T13:20:21.393Z,101759.81
2023-04-27T13:22:49.311Z,101750.88
2023-04-27T13:25:19.787Z,101754.69
2023-04-27T13:27:49.175Z,101759.09
2023-04-27T13:30:17.207Z,101753.75
2023-04-27T13:32:45.038Z,101755.09
2023-04-27T13:35:12.956Z,101749.78
2023-04-27T13:37:42.328Z,101754.31
2023-04-27T13:40:12.559Z,101754.09
2023-04-27T13:42:41.130Z,101749.00
2023-04-27T13:45:11.473Z,101760.78
2023-04-27T13:47:40.692Z,101747.81
2023-04-27T13:50:11.066Z,101756.19
2023-04-27T13:52:39.726Z,101756.50
2023-04-27T13:55:09.828Z,101750.78
2023-04-27T13:57:38.453Z,101755.38
2023-04-27T14:00:08.035Z,101741.59
2023-04-27T14:02:38.738Z,101749.78
2023-04-27T14:05:07.789Z,101737.28
2023-04-27T14:07:36.522Z,101745.91
2023-04-27T14:10:05.303Z,101740.06
2023-04-27T14:12:33.508Z,101745.63
2023-04-27T14:15:01.416Z,101742.81
2023-04-27T14:17:29.363Z,101751.75
2023-04-27T14:19:58.628Z,101745.38
2023-04-27T14:22:26.585Z,101754.22
2023-04-27T14:24:56.404Z,101754.94
2023-04-27T14:27:24.623Z,101759.25
2023-04-27T14:29:52.612Z,101752.25
2023-04-27T14:32:21.205Z,101748.59
2023-04-27T14:34:49.340Z,101751.75
2023-04-27T14:37:18.649Z,101756.41
2023-04-27T14:39:46.910Z,101751.91
2023-04-27T14:42:14.887Z,101755.13
2023-04-27T14:44:42.744Z,101751.16
2023-04-27T14:47:10.774Z,101745.09
2023-04-27T14:49:38.898Z,101749.59
2023-04-27T14:52:06.974Z,101745.06
2023-04-27T14:54:38.421Z,101747.88
2023-04-27T14:57:06.396Z,101745.59
2023-04-27T14:59:34.619Z,101740.16
2023-04-27T15:02:02.963Z,101748.78
2023-04-27T15:04:30.998Z,101748.34
2023-04-27T15:06:58.859Z,101747.13
2023-04-27T15:09:26.794Z,101749.69
2023-04-27T15:11:56.078Z,101749.81
2023-04-27T15:14:23.966Z,101755.13
2023-04-27T15:16:52.162Z,101748.94
2023-04-27T15:19:20.046Z,101748.53
2023-04-27T15:21:48.614Z,101745.69
2023-04-27T15:24:16.515Z,101751.94
2023-04-27T15:26:44.423Z,101752.63
2023-04-27T15:29:13.836Z,101747.63
2023-04-27T15:31:41.876Z,101747.63
2023-04-27T15:34:09.845Z,101743.75
2023-04-27T15:36:37.780Z,101737.00
2023-04-27T15:39:08.827Z,101726.16
2023-04-27T15:41:38.088Z,101743.72
2023-04-27T15:44:06.908Z,101734.59
2023-04-27T15:46:36.469Z,101740.44
2023-04-27T15:49:04.355Z,101733.09
2023-04-27T15:51:32.377Z,101737.88
2023-04-27T15:54:00.454Z,101729.72
2023-04-27T15:56:30.579Z,101724.88
2023-04-27T15:58:58.794Z,101726.06
2023-04-27T16:01:27.627Z,101722.25
2023-04-27T16:03:57.391Z,101716.88
2023-04-27T16:06:33.156Z,101714.16
2023-04-27T16:09:03.237Z,101708.09
2023-04-27T16:11:31.220Z,101715.22
2023-04-27T16:13:59.577Z,101706.53
2023-04-27T16:16:27.824Z,101705.69
2023-04-27T16:18:58.499Z,101701.50
2023-04-27T16:21:26.940Z,101700.50
2023-04-27T16:23:55.093Z,101702.81
2023-04-27T16:26:23.519Z,101705.56
2023-04-27T16:28:52.516Z,101701.13
2023-04-27T16:31:20.532Z,101699.03
2023-04-27T16:33:48.403Z,101697.09
2023-04-27T16:36:17.683Z,101695.25
2023-04-27T16:38:46.161Z,101682.63
2023-04-27T16:41:14.266Z,101689.16
2023-04-27T16:43:42.081Z,101689.31
2023-04-27T16:46:11.775Z,101693.84
2023-04-27T16:48:39.695Z,101696.31
2023-04-27T16:51:07.830Z,101692.28
2023-04-27T16:53:37.655Z,101685.97
2023-04-27T16:56:06.133Z,101693.81
2023-04-27T16:58:36.005Z,101697.00
2023-04-27T17:01:04.722Z,101699.38
2023-04-27T17:03:34.590Z,101696.53
2023-04-27T17:06:03.011Z,101696.84
2023-04-27T17:08:30.937Z,101709.56
2023-04-27T17:11:00.208Z,101706.25
2023-04-27T17:13:28.143Z,101711.63
2023-04-27T17:15:56.145Z,101706.22
2023-04-27T17:18:23.993Z,101709.53
2023-04-27T17:20:52.055Z,101712.00
2023-04-27T17:23:20.049Z,101716.91
2023-04-27T17:25:47.923Z,101707.72
2023-04-27T17:28:17.147Z,101716.31
2023-04-27T17:30:45.092Z,101714.66
2023-04-27T17:33:14.712Z,101712.06
2023-04-27T17:35:44.309Z,101715.06
2023-04-27T17:38:12.337Z,101715.78
2023-04-27T17:40:40.228Z,101707.16
2023-04-27T17:43:10.247Z,101710.38
2023-04-27T17:45:39.515Z,101710.72
2023-04-27T17:48:07.731Z,101711.66
2023-04-27T17:50:36.161Z,101711.88
2023-04-27T17:53:04.153Z,101712.06
2023-04-27T17:55:32.385Z,101709.19
2023-04-27T17:58:00.343Z,101714.75
2023-04-27T18:00:28.245Z,101717.00
2023-04-27T18:02:57.611Z,101717.66
2023-04-27T18:05:25.764Z,101721.66
2023-04-27T18:07:54.021Z,101726.69
2023-04-27T18:10:21.927Z,101727.81
2023-04-27T18:12:49.831Z,101723.72
2023-04-27T18:15:17.709Z,101728.66
2023-04-27T18:17:45.657Z,101730.03
2023-04-27T18:20:15.661Z,101730.25
2023-04-27T18:22:43.622Z,101734.66
2023-04-27T18:25:13.106Z,101742.50
2023-04-27T18:27:41.483Z,101736.06
2023-04-27T18:30:09.759Z,101743.22
2023-04-27T18:32:38.161Z,101745.72
2023-04-27T18:35:06.846Z,101748.59
2023-04-27T18:37:36.179Z,101753.28
2023-04-27T18:40:05.825Z,101754.56
2023-04-27T18:42:33.741Z,101751.56
2023-04-27T18:45:01.882Z,101761.31
2023-04-27T18:47:29.751Z,101766.25
2023-04-27T18:49:57.671Z,101768.38
2023-04-27T18:52:25.601Z,101763.94
2023-04-27T18:54:54.884Z,101764.41
2023-04-27T18:57:23.257Z,101763.66
2023-04-27T18:59:51.338Z,101765.81
2023-04-27T19:02:19.251Z,101760.00
2023-04-27T19:04:52.746Z,101765.25
2023-04-27T19:07:29.859Z,101765.44
2023-04-27T19:09:59.094Z,101764.38
2023-04-27T19:12:27.011Z,101763.94
2023-04-27T19:14:54.968Z,101769.06
2023-04-27T19:17:23.031Z,101772.47
2023-04-27T19:19:51.135Z,101768.72
2023-04-27T19:22:19.123Z,101781.06
2023-04-27T19:24:47.000Z,101776.28
2023-04-27T19:27:16.323Z,101775.56
2023-04-27T19:29:51.768Z,101776.53
2023-04-27T19:32:22.208Z,101774.78
2023-04-27T19:34:50.291Z,101778.16
2023-04-27T19:37:18.183Z,101773.84
2023-04-27T19:39:46.908Z,101779.59
2023-04-27T19:42:16.342Z,101767.63
2023-04-27T19:44:44.280Z,101772.03
2023-04-27T19:47:12.162Z,101774.81
2023-04-27T19:49:40.279Z,101783.34
2023-04-27T19:52:08.187Z,101776.16
2023-04-27T19:54:38.295Z,101779.13
2023-04-27T19:57:06.639Z,101785.59
2023-04-27T19:59:36.159Z,101784.13
2023-04-27T20:02:04.393Z,101780.78
2023-04-27T20:04:33.070Z,101774.88
2023-04-27T20:07:01.834Z,101772.47
2023-04-27T20:09:30.686Z,101773.34
2023-04-27T20:11:58.582Z,101767.41
2023-04-27T20:14:29.020Z,101763.59
2023-04-27T20:16:58.316Z,101765.22
2023-04-27T20:19:26.561Z,101776.00
2023-04-27T20:21:54.551Z,101770.63
2023-04-27T20:24:23.369Z,101772.75
2023-04-27T20:26:51.279Z,101767.97
2023-04-27T20:29:19.156Z,101769.88
2023-04-27T20:31:48.548Z,101768.81
2023-04-27T20:34:18.149Z,101773.72
2023-04-27T20:36:46.843Z,101761.78
2023-04-27T20:39:15.337Z,101769.13
2023-04-27T20:41:44.361Z,101768.34
2023-04-27T20:44:13.108Z,101769.66
2023-04-27T20:46:41.529Z,101771.09
2023-04-27T20:49:09.482Z,101767.56
2023-04-27T20:51:39.177Z,101769.28
2023-04-27T20:54:07.156Z,101768.16
2023-04-27T20:56:35.073Z,101764.53
2023-04-27T20:59:03.145Z,101768.13
2023-04-27T21:01:31.041Z,101763.34
2023-04-27T21:03:59.089Z,101760.19
2023-04-27T21:06:27.155Z,101765.31
2023-04-27T21:08:57.519Z,101757.41
2023-04-27T21:11:25.504Z,101759.41
2023-04-27T21:13:53.819Z,101764.97
2023-04-27T21:16:22.027Z,101763.16
2023-04-27T21:18:49.906Z,101752.59
2023-04-27T21:21:17.854Z,101753.34
2023-04-27T21:23:48.096Z,101742.25
2023-04-27T21:26:19.199Z,101748.50
2023-04-27T21:28:47.454Z,101751.53
2023-04-27T21:31:15.463Z,101756.31
2023-04-27T21:33:43.600Z,101740.34
2023-04-27T21:36:11.501Z,101752.34
2023-04-27T21:38:39.400Z,101744.66
2023-04-27T21:41:07.468Z,101743.91
2023-04-27T21:43:36.725Z,101746.13
2023-04-27T21:46:04.640Z,101744.84
2023-04-27T21:48:32.563Z,101749.09
2023-04-27T21:51:00.430Z,101741.09
2023-04-27T21:53:28.789Z,101742.03
2023-04-27T21:55:57.496Z,101752.78
2023-04-27T21:58:25.630Z,101756.25
2023-04-27T22:00:54.895Z,101753.19
2023-04-27T22:03:23.449Z,101744.47
2023-04-27T22:05:52.810Z,101748.88
2023-04-27T22:08:21.773Z,101744.69
2023-04-27T22:10:49.767Z,101744.31
2023-04-27T22:13:19.259Z,101748.50
2023-04-27T22:15:47.714Z,101752.34
2023-04-27T22:18:17.066Z,101755.88
2023-04-27T22:20:45.238Z,101756.28
2023-04-27T22:23:13.188Z,101755.44
2023-04-27T22:25:42.830Z,101760.25
2023-04-27T22:28:11.051Z,101755.50
2023-04-27T22:30:39.215Z,101757.31
2023-04-27T22:33:07.337Z,101757.38
2023-04-27T22:35:37.440Z,101762.66
2023-04-27T22:38:07.017Z,101761.59
2023-04-27T22:40:34.857Z,101755.31
2023-04-27T22:43:02.755Z,101765.16
2023-04-27T22:45:30.849Z,101759.41
2023-04-27T22:47:58.827Z,101767.66
2023-04-27T22:50:26.765Z,101756.97
2023-04-27T22:52:56.049Z,101760.88
2023-04-27T22:55:24.034Z,101756.03
2023-04-27T22:57:53.759Z,101762.78
2023-04-27T23:00:21.968Z,101757.41
2023-04-27T23:02:50.039Z,101753.03
2023-04-27T23:05:18.155Z,101755.94
2023-04-27T23:07:46.420Z,101745.09
2023-04-27T23:10:15.710Z,101750.03
2023-04-27T23:12:43.612Z,101749.25
2023-04-27T23:15:12.453Z,101741.66
2023-04-27T23:17:40.460Z,101732.16
2023-04-27T23:20:24.186Z,101734.91
2023-04-27T23:22:55.034Z,101737.25
2023-04-27T23:25:24.570Z,101735.63
2023-04-27T23:27:52.989Z,101730.97
2023-04-27T23:30:21.908Z,101725.97
2023-04-27T23:32:49.991Z,101732.00
2023-04-27T23:35:17.907Z,101732.28
2023-04-27T23:37:45.845Z,101722.19
2023-04-27T23:40:14.109Z,101725.63
2023-04-27T23:42:43.433Z,101720.09
2023-04-27T23:45:12.242Z,101721.78
2023-04-27T23:47:40.241Z,101715.78
2023-04-27T23:50:09.019Z,101714.44
2023-04-27T23:52:37.177Z,101716.94
2023-04-27T23:55:05.906Z,101714.09
2023-04-27T23:57:33.771Z,101720.63
